Terminal Aerodrome Forecast
Issued by NWS

Home | Current Version | Previous Version | Text Only | Print | Product List | Glossary On
Versions: 1 2 3 4 5 6 7 8 9 10 11 12 13 14 15 16 17 18 19 20 21 22 23 24 25 26 27 28 29 30 31 32 33
000
FTUS45 KGJT 272327
TAFEGE
TAF
KEGE 272327Z 2800/2824 30004KT P6SM FEW080
     FM280200 11004KT P6SM SKC
     FM281000 00000KT P6SM SKC
     FM282000 25015G25KT P6SM FEW080
      AMD LTD TO CLD VIS AND WIND 2806/2814=

USA.gov is the U.S. government's official web portal to all federal, state and local government web resources and services.